Bookmark and Share
Track history (hours):
 

Bangkok Bridge

Last reported at 2014-Apr-24 04:19 UTC. Time now 2014-Apr-24 05:48 UTC.
Position N 31°20' E 121°39'.

Length 267 m; draft 10 m.

Type: Ship (hazmat cat A). MMSI: 353368000.

NotesDate/timePositionNaut miles runAvg speedWind from/ knotsBaromVisibWave heightAir tempDewpointWater temp
2014-Apr-24 04:19N 31°20' E 121°39'0 0.0
2014-Apr-24 02:31N 31°20' E 121°39'0 0.0
2014-Apr-24 01:25N 31°20' E 121°39'0 0.0
2014-Apr-24 00:07N 31°20' E 121°39'0 0.1
2014-Apr-23 23:33N 31°20' E 121°39'4 3.7
2014-Apr-23 22:32N 31°19' E 121°44'1110.8
2014-Apr-23 21:33N 31°16' E 121°55'1110.8
2014-Apr-23 20:32N 31°13' E 122°08'26 5.2
2014-Apr-23 15:33N 31°09' E 122°38'0 0.0
2014-Apr-23 14:06N 31°09' E 122°38'0 0.1
2014-Apr-23 11:24N 31°09' E 122°38'0 0.0
2014-Apr-23 02:06N 31°09' E 122°38'0 0.1
2014-Apr-23 01:12N 31°09' E 122°38'0 0.0
2014-Apr-23 00:24N 31°09' E 122°38'0 0.1
2014-Apr-22 23:30N 31°09' E 122°38'0 0.1
2014-Apr-22 22:24N 31°09' E 122°38'0 0.0
2014-Apr-22 14:30N 31°09' E 122°38'0 0.0
2014-Apr-22 12:18N 31°09' E 122°38'  
2014-Apr-14 20:34N 34°59' E 139°30'1716.9
2014-Apr-14 19:34N 35°10' E 139°45'1211.9
2014-Apr-14 18:34N 35°22' E 139°42'5 4.9
2014-Apr-14 17:32N 35°27' E 139°40'0 0.0
2014-Apr-14 16:32N 35°27' E 139°40'0 0.0
2014-Apr-14 14:32N 35°27' E 139°40'0 0.0
2014-Apr-14 13:32N 35°27' E 139°40'0 0.0
2014-Apr-14 11:32N 35°27' E 139°40'0 0.0
2014-Apr-14 10:32N 35°27' E 139°40'0 0.0
2014-Apr-14 09:32N 35°27' E 139°40'0 0.0
2014-Apr-14 08:32N 35°27' E 139°40'0 0.0
2014-Apr-14 07:32N 35°27' E 139°40'0 0.0
2014-Apr-14 06:32N 35°27' E 139°40'0 0.0
2014-Apr-14 05:31N 35°27' E 139°40'  

Dump ship's entire track history

sailing weather and tide predictions

Bangkok Bridge — 3FTZ8 — position and weather